Time;durP1;ratioP1;P1;durP2;ratioP2;P2;SDS_P1;SDS_P2;PMS_P1;PMS_P2;Temp;Humidity;BMP_temperature;BMP_pressure;BME280_temperature;BME280_humidity;BME280_pressure;Samples;Min_cycle;Max_cycle;Signal;HPM_P1;HPM_P2
2022/07/08 00:01:57;;;;;;;10.15;5.20;;;23.70;63.80;;;;;;1786895;79;21067;-59
2022/07/08 00:04:26;;;;;;;12.78;4.67;;;23.70;63.90;;;;;;1822455;78;21048;-60
2022/07/08 00:06:56;;;;;;;11.93;5.03;;;23.60;64.10;;;;;;1786954;79;21066;-60
2022/07/08 00:09:30;;;;;;;14.13;5.15;;;23.60;64.10;;;;;;1822440;77;21053;-60
2022/07/08 00:11:57;;;;;;;13.88;5.10;;;23.60;64.20;;;;;;1781203;80;21184;-59
2022/07/08 00:14:26;;;;;;;9.53;4.58;;;23.60;64.20;;;;;;1765751;80;21067;-60
2022/07/08 00:16:56;;;;;;;5.55;4.22;;;23.60;64.10;;;;;;1765942;81;21157;-60
2022/07/08 00:19:25;;;;;;;7.83;4.28;;;23.60;64.40;;;;;;1765895;80;21169;-60
2022/07/08 00:21:55;;;;;;;8.80;4.37;;;23.60;64.30;;;;;;1765829;81;21146;-59
2022/07/08 00:24:24;;;;;;;12.43;4.37;;;23.50;64.40;;;;;;1765906;81;21127;-60
2022/07/08 00:26:54;;;;;;;8.15;4.33;;;23.50;64.50;;;;;;1765779;81;21157;-60
2022/07/08 00:29:23;;;;;;;10.32;5.03;;;23.50;64.40;;;;;;1765828;80;21092;-59
2022/07/08 00:31:52;;;;;;;12.47;4.42;;;23.50;64.60;;;;;;1765770;80;21062;-59
2022/07/08 00:34:21;;;;;;;9.15;4.30;;;23.40;64.20;;;;;;1765886;81;21514;-59
2022/07/08 00:36:51;;;;;;;7.53;4.25;;;23.40;64.10;;;;;;1765803;81;21149;-59
2022/07/08 00:39:20;;;;;;;9.65;4.97;;;23.40;64.30;;;;;;1765742;80;21057;-59
2022/07/08 00:41:49;;;;;;;12.90;4.05;;;23.40;64.20;;;;;;1765884;80;21073;-60
2022/07/08 00:44:19;;;;;;;8.73;4.50;;;23.30;64.40;;;;;;1765995;81;21046;-59
2022/07/08 00:46:48;;;;;;;9.25;4.45;;;23.30;64.70;;;;;;1765989;81;21092;-59
2022/07/08 00:49:17;;;;;;;8.15;4.10;;;23.30;64.90;;;;;;1765958;80;21158;-59
2022/07/08 00:51:48;;;;;;;8.58;4.55;;;23.30;65.00;;;;;;1765925;80;21133;-59
2022/07/08 00:54:20;;;;;;;6.65;4.75;;;23.30;64.80;;;;;;1765863;80;21157;-60
2022/07/08 00:56:50;;;;;;;7.17;4.78;;;23.30;64.40;;;;;;1765590;80;21186;-59
2022/07/08 00:59:20;;;;;;;8.60;4.15;;;23.20;64.20;;;;;;1765985;81;21079;-59
2022/07/08 01:01:49;;;;;;;9.00;4.62;;;23.20;64.30;;;;;;1765919;81;21095;-59
2022/07/08 01:04:18;;;;;;;7.97;4.90;;;23.20;64.80;;;;;;1765849;80;21095;-59
2022/07/08 01:06:48;;;;;;;6.85;4.20;;;23.20;64.90;;;;;;1765984;81;21170;-59
2022/07/08 01:09:17;;;;;;;7.90;4.20;;;23.10;65.00;;;;;;1765897;80;21174;-59
2022/07/08 01:11:48;;;;;;;7.00;4.17;;;23.10;65.00;;;;;;1766187;80;21095;-59
2022/07/08 01:14:17;;;;;;;8.83;4.60;;;23.10;65.00;;;;;;1821206;78;21056;-60
2022/07/08 01:16:46;;;;;;;9.15;4.65;;;23.10;65.10;;;;;;1821072;77;21063;-59
2022/07/08 01:19:16;;;;;;;7.17;4.28;;;23.10;65.20;;;;;;1821165;79;21094;-58
2022/07/08 01:21:45;;;;;;;14.00;4.47;;;23.00;65.60;;;;;;1821164;78;21051;-58
2022/07/08 01:24:14;;;;;;;8.40;4.50;;;23.00;65.70;;;;;;1821167;77;21149;-58
2022/07/08 01:26:43;;;;;;;13.43;5.72;;;23.00;65.70;;;;;;1821179;78;21135;-58
2022/07/08 01:29:13;;;;;;;10.38;4.72;;;23.00;65.60;;;;;;1821190;79;21011;-58
2022/07/08 01:31:42;;;;;;;7.12;4.25;;;23.00;65.70;;;;;;1821065;78;21044;-58
2022/07/08 01:34:12;;;;;;;6.78;4.33;;;22.90;65.70;;;;;;1821163;78;21098;-58
2022/07/08 01:36:41;;;;;;;9.13;4.20;;;22.90;65.70;;;;;;1821100;79;21032;-58
2022/07/08 01:39:10;;;;;;;10.38;4.95;;;22.80;65.80;;;;;;1821153;77;21037;-58
2022/07/08 01:41:40;;;;;;;9.88;4.50;;;22.80;66.20;;;;;;1821189;78;21032;-58
2022/07/08 01:44:09;;;;;;;6.25;3.85;;;22.80;66.10;;;;;;1821029;79;21052;-58
2022/07/08 01:46:40;;;;;;;9.73;4.53;;;22.80;66.20;;;;;;1821126;79;21115;-58
2022/07/08 01:49:14;;;;;;;7.90;4.28;;;22.70;66.40;;;;;;1821168;79;21091;-58
2022/07/08 01:51:41;;;;;;;11.10;4.22;;;22.70;66.60;;;;;;1820980;78;21040;-58
2022/07/08 01:54:10;;;;;;;7.83;4.22;;;22.70;66.60;;;;;;1821141;78;21020;-58
2022/07/08 01:56:41;;;;;;;7.15;4.00;;;22.70;66.70;;;;;;1821046;78;21118;-58
2022/07/08 01:59:10;;;;;;;6.65;3.65;;;22.60;66.20;;;;;;1821156;77;21040;-58
2022/07/08 02:01:40;;;;;;;10.63;4.80;;;22.60;66.20;;;;;;1821067;79;21020;-58
2022/07/08 02:04:10;;;;;;;9.85;4.40;;;22.50;66.60;;;;;;1821201;78;21040;-58
2022/07/08 02:06:40;;;;;;;6.45;4.60;;;22.50;67.00;;;;;;1821084;79;21020;-58
2022/07/08 02:09:09;;;;;;;9.48;4.12;;;22.50;66.60;;;;;;1821025;79;21118;-59
2022/07/08 02:14:26;;;;;;;6.42;4.17;;;22.50;66.50;;;;;;1821052;78;21080;-58
2022/07/08 02:16:56;;;;;;;8.80;4.70;;;22.40;66.90;;;;;;1821146;78;21079;-58
2022/07/08 02:19:25;;;;;;;7.53;4.28;;;22.40;67.30;;;;;;1821035;78;21115;-58
2022/07/08 02:21:55;;;;;;;12.45;5.10;;;22.50;67.50;;;;;;1821172;78;21039;-58
2022/07/08 02:24:24;;;;;;;9.53;4.35;;;22.50;67.40;;;;;;1821164;78;21119;-58
2022/07/08 02:26:54;;;;;;;20.50;5.58;;;22.50;67.50;;;;;;1821030;78;21060;-58
2022/07/08 02:29:23;;;;;;;12.10;4.37;;;22.50;67.20;;;;;;1821025;78;21095;-58
2022/07/08 02:31:52;;;;;;;6.83;4.17;;;22.40;67.00;;;;;;1821059;78;21085;-58
2022/07/08 02:34:22;;;;;;;12.33;4.40;;;22.40;67.40;;;;;;1821125;79;21044;-58
2022/07/08 02:36:51;;;;;;;7.40;4.30;;;22.40;67.50;;;;;;1821181;79;21048;-58
2022/07/08 02:39:26;;;;;;;5.05;3.67;;;22.40;67.40;;;;;;1821145;79;21029;-58
2022/07/08 02:41:52;;;;;;;8.20;4.10;;;22.40;67.40;;;;;;1821966;76;21060;-58
2022/07/08 02:44:21;;;;;;;8.10;4.15;;;22.40;67.60;;;;;;1821079;78;21044;-58
2022/07/08 02:46:50;;;;;;;7.72;4.20;;;22.40;67.60;;;;;;1821146;78;21048;-58
2022/07/08 02:49:20;;;;;;;8.38;4.25;;;22.40;67.60;;;;;;1821081;78;21123;-58
2022/07/08 02:51:49;;;;;;;10.00;4.55;;;22.50;67.60;;;;;;1821114;79;21130;-58
2022/07/08 02:54:19;;;;;;;11.53;5.10;;;22.60;67.60;;;;;;1821135;79;21020;-58
2022/07/08 02:56:48;;;;;;;6.33;4.30;;;22.70;67.00;;;;;;1821157;78;21475;-58
2022/07/08 02:59:17;;;;;;;9.70;5.00;;;22.80;66.70;;;;;;1821181;79;21474;-58
2022/07/08 03:01:47;;;;;;;9.98;4.53;;;22.80;66.00;;;;;;1821241;79;21040;-58
2022/07/08 03:04:16;;;;;;;9.40;4.83;;;22.70;66.20;;;;;;1821224;77;21048;-58
2022/07/08 03:06:46;;;;;;;10.50;6.83;;;22.70;66.50;;;;;;1821217;79;21157;-58
2022/07/08 03:09:16;;;;;;;10.70;5.25;;;22.80;66.50;;;;;;1821105;79;21162;-58
2022/07/08 03:11:45;;;;;;;14.87;4.60;;;22.70;66.00;;;;;;1821118;79;21139;-58
2022/07/08 03:14:14;;;;;;;10.60;4.20;;;22.70;66.20;;;;;;1820970;78;21130;-58
2022/07/08 03:16:43;;;;;;;8.45;4.37;;;22.60;66.60;;;;;;1820912;79;21126;-58
2022/07/08 03:19:13;;;;;;;6.58;4.12;;;22.70;66.90;;;;;;1820929;79;21032;-59
2022/07/08 03:21:43;;;;;;;12.55;4.37;;;22.70;66.90;;;;;;1821020;79;21106;-59
2022/07/08 03:24:12;;;;;;;15.83;4.30;;;22.80;67.10;;;;;;1821050;78;21056;-58
2022/07/08 03:26:41;;;;;;;11.25;4.25;;;23.00;67.10;;;;;;1820973;79;21084;-58
2022/07/08 03:29:11;;;;;;;9.65;4.10;;;23.10;66.70;;;;;;1820880;78;21427;-58
2022/07/08 03:31:40;;;;;;;21.17;4.83;;;23.20;66.50;;;;;;1821014;78;21094;-58
2022/07/08 03:34:10;;;;;;;6.15;4.20;;;23.30;66.60;;;;;;1820949;78;21020;-58
2022/07/08 03:36:39;;;;;;;10.95;4.10;;;23.40;66.50;;;;;;1820979;78;21098;-58
2022/07/08 03:39:09;;;;;;;10.93;3.65;;;23.50;66.40;;;;;;1821037;78;21032;-58
2022/07/08 03:41:38;;;;;;;9.00;4.30;;;23.70;66.50;;;;;;1821111;79;21032;-58
2022/07/08 03:44:07;;;;;;;16.57;4.55;;;23.80;66.40;;;;;;1820985;79;21048;-58
2022/07/08 03:46:37;;;;;;;35.63;6.20;;;23.90;66.20;;;;;;1820978;78;21053;-58
2022/07/08 03:49:07;;;;;;;22.98;4.50;;;24.00;65.90;;;;;;1821013;78;21076;-58
2022/07/08 03:51:36;;;;;;;10.70;4.78;;;24.10;66.00;;;;;;1821036;78;21104;-58
2022/07/08 03:54:06;;;;;;;5.62;3.87;;;24.20;65.70;;;;;;1821075;79;21514;-58
2022/07/08 03:56:36;;;;;;;12.10;4.10;;;24.20;65.30;;;;;;1821106;79;21166;-58
2022/07/08 03:59:05;;;;;;;9.70;4.33;;;24.20;65.50;;;;;;1821019;78;21106;-58
2022/07/08 04:01:34;;;;;;;13.85;4.78;;;24.20;65.00;;;;;;1820978;79;21036;-58
2022/07/08 04:04:04;;;;;;;21.27;8.73;;;24.30;64.40;;;;;;1820910;79;21494;-58
2022/07/08 04:06:33;;;;;;;20.80;9.83;;;24.40;63.90;;;;;;1821068;77;21107;-58
2022/07/08 04:09:02;;;;;;;29.87;14.10;;;24.40;63.70;;;;;;1821086;78;21107;-58
2022/07/08 04:11:32;;;;;;;19.27;9.68;;;24.40;63.60;;;;;;1820953;79;21099;-59
2022/07/08 04:14:01;;;;;;;9.10;5.03;;;24.50;63.50;;;;;;1820903;77;21064;-58
2022/07/08 04:16:31;;;;;;;11.60;4.05;;;24.60;62.90;;;;;;1821051;78;21126;-59
2022/07/08 04:19:00;;;;;;;39.63;7.65;;;24.80;62.70;;;;;;1820980;79;21094;-59
2022/07/08 04:21:29;;;;;;;16.00;5.92;;;25.00;62.50;;;;;;1820944;78;21087;-59
2022/07/08 04:24:00;;;;;;;13.88;4.80;;;25.00;62.00;;;;;;1821020;79;21036;-59
2022/07/08 04:26:31;;;;;;;15.28;5.67;;;25.00;62.00;;;;;;1820900;79;21029;-59
2022/07/08 04:29:01;;;;;;;16.77;6.65;;;25.10;61.90;;;;;;1821002;79;21487;-59
2022/07/08 04:31:31;;;;;;;30.50;9.60;;;25.10;61.90;;;;;;1820888;78;21114;-59
2022/07/08 04:34:00;;;;;;;11.83;7.20;;;25.20;61.90;;;;;;1820930;78;21098;-59
2022/07/08 04:36:29;;;;;;;19.60;7.75;;;25.30;61.70;;;;;;1821028;78;21036;-59
2022/07/08 04:38:59;;;;;;;14.78;8.08;;;25.40;61.40;;;;;;1820943;79;21056;-59
2022/07/08 04:41:29;;;;;;;10.90;5.47;;;25.50;61.10;;;;;;1820961;78;21090;-59
2022/07/08 04:43:58;;;;;;;15.93;5.60;;;25.50;60.70;;;;;;1821028;79;21098;-59
2022/07/08 04:46:27;;;;;;;9.13;4.97;;;25.60;60.70;;;;;;1820916;78;21099;-58
2022/07/08 04:48:57;;;;;;;12.18;6.28;;;25.60;60.50;;;;;;1820954;77;21506;-58
2022/07/08 04:51:26;;;;;;;7.80;5.28;;;25.70;60.40;;;;;;1820887;79;21067;-58
2022/07/08 04:53:55;;;;;;;13.58;6.30;;;25.70;60.40;;;;;;1821037;79;21032;-59
2022/07/08 04:56:24;;;;;;;22.75;6.53;;;25.80;60.70;;;;;;1821078;79;21040;-59
2022/07/08 04:58:54;;;;;;;15.45;6.17;;;25.80;60.80;;;;;;1821000;79;21048;-58
2022/07/08 05:01:23;;;;;;;6.90;4.87;;;25.90;61.00;;;;;;1821231;79;21060;-58
2022/07/08 05:03:54;;;;;;;21.97;6.15;;;26.00;61.20;;;;;;1821195;78;21044;-59
2022/07/08 05:06:23;;;;;;;10.25;4.30;;;26.20;61.10;;;;;;1821082;77;21111;-58
2022/07/08 05:08:52;;;;;;;8.88;4.67;;;26.30;60.50;;;;;;1821049;78;21069;-58
2022/07/08 05:11:22;;;;;;;9.35;4.60;;;26.30;60.10;;;;;;1821033;78;21044;-58
2022/07/08 05:13:51;;;;;;;20.82;5.37;;;26.50;60.20;;;;;;1820946;78;21124;-58
2022/07/08 05:16:21;;;;;;;11.30;4.78;;;26.60;60.00;;;;;;1820961;78;21076;-58
2022/07/08 05:18:50;;;;;;;12.93;5.33;;;26.70;59.60;;;;;;1820836;78;21122;-58
2022/07/08 05:21:20;;;;;;;16.20;5.45;;;26.70;59.90;;;;;;1821003;79;21095;-58
2022/07/08 05:23:49;;;;;;;12.25;4.95;;;26.90;60.00;;;;;;1820974;79;21043;-58
2022/07/08 05:26:19;;;;;;;13.68;5.37;;;27.00;60.00;;;;;;1820893;79;21065;-58
2022/07/08 05:28:48;;;;;;;16.62;5.92;;;27.20;59.70;;;;;;1820947;79;21108;-58
2022/07/08 05:31:18;;;;;;;10.93;4.85;;;27.30;59.50;;;;;;1820976;78;21056;-58
2022/07/08 05:33:47;;;;;;;13.25;5.75;;;27.40;59.40;;;;;;1821087;79;21036;-58
2022/07/08 05:36:17;;;;;;;17.55;6.85;;;27.50;59.10;;;;;;1821036;78;21116;-58
2022/07/08 05:38:46;;;;;;;20.75;6.25;;;27.50;59.10;;;;;;1820998;78;21094;-58
2022/07/08 05:41:15;;;;;;;11.33;6.50;;;27.60;59.10;;;;;;1821020;78;21005;-58
2022/07/08 05:43:45;;;;;;;20.92;6.67;;;27.70;59.00;;;;;;1821001;77;21110;-58
2022/07/08 05:46:15;;;;;;;18.60;6.53;;;27.80;59.10;;;;;;1821125;79;21032;-58
2022/07/08 05:48:44;;;;;;;13.75;5.85;;;27.80;59.10;;;;;;1821091;78;21094;-58
2022/07/08 05:51:13;;;;;;;12.58;6.70;;;27.80;59.20;;;;;;1821076;79;21090;-57
2022/07/08 05:53:43;;;;;;;12.70;6.75;;;27.90;59.50;;;;;;1821097;79;21459;-58
2022/07/08 05:56:12;;;;;;;17.60;6.58;;;28.00;59.90;;;;;;1820998;79;21032;-58
2022/07/08 05:58:41;;;;;;;13.10;6.47;;;28.00;60.10;;;;;;1821047;78;21036;-58
2022/07/08 06:01:11;;;;;;;14.00;7.80;;;28.10;60.00;;;;;;1821045;78;21106;-58
2022/07/08 12:44:54;;;;;;;17.87;6.30;;;34.10;49.50;;;;;;1958996;73;22031;-60
2022/07/08 12:47:23;;;;;;;;;;;33.60;50.80;;;;;;1921299;75;21491;-60
2022/07/08 12:49:54;;;;;;;10.72;4.53;;;33.10;52.10;;;;;;1918479;75;20203;-60
2022/07/08 12:52:24;;;;;;;12.65;5.00;;;32.60;52.80;;;;;;1918415;75;21518;-60
2022/07/08 12:54:53;;;;;;;11.12;5.00;;;32.20;53.60;;;;;;1918196;75;21015;-60
2022/07/08 12:57:22;;;;;;;12.95;4.87;;;31.70;54.20;;;;;;1918257;75;21015;-60
2022/07/08 12:59:52;;;;;;;8.78;5.10;;;31.40;55.10;;;;;;1918414;75;21062;-60
2022/07/08 13:02:21;;;;;;;9.15;4.40;;;31.10;55.60;;;;;;1881838;75;21139;-60
2022/07/08 13:04:51;;;;;;;14.43;5.45;;;30.90;56.10;;;;;;1865778;77;21179;-60
2022/07/08 13:07:20;;;;;;;16.45;5.20;;;30.80;56.20;;;;;;1865735;77;21012;-60
2022/07/08 13:09:50;;;;;;;12.15;4.80;;;30.70;56.40;;;;;;1865979;77;21047;-60
2022/07/08 13:12:19;;;;;;;14.23;5.83;;;30.70;56.40;;;;;;1865935;77;21016;-60
2022/07/08 13:14:48;;;;;;;24.02;6.72;;;30.90;56.40;;;;;;1865891;77;21027;-60
2022/07/08 13:17:18;;;;;;;14.53;6.53;;;31.00;56.10;;;;;;1865910;77;21105;-60
2022/07/08 13:19:47;;;;;;;16.35;6.87;;;31.00;55.80;;;;;;1865964;77;21121;-60
2022/07/08 13:22:16;;;;;;;12.23;5.72;;;30.90;56.10;;;;;;1865763;77;21039;-60
2022/07/08 13:24:46;;;;;;;11.30;5.28;;;30.80;56.60;;;;;;1865898;77;21012;-60
2022/07/08 13:27:15;;;;;;;7.45;4.00;;;30.70;56.80;;;;;;1865859;77;21121;-60
2022/07/08 13:29:44;;;;;;;12.00;3.83;;;30.60;56.30;;;;;;1865897;77;21035;-60
2022/07/08 13:32:14;;;;;;;13.30;5.35;;;30.50;55.90;;;;;;1865884;77;21012;-60
2022/07/08 13:34:43;;;;;;;10.20;4.65;;;30.40;55.90;;;;;;1865853;77;21129;-60
2022/07/08 13:37:13;;;;;;;15.40;5.10;;;30.30;56.20;;;;;;1866026;77;21016;-61
2022/07/08 13:39:42;;;;;;;12.80;5.67;;;30.20;56.40;;;;;;1865828;77;21106;-60
2022/07/08 13:42:12;;;;;;;13.22;5.10;;;30.10;56.50;;;;;;1865868;77;21075;-61
2022/07/08 13:44:41;;;;;;;9.43;4.60;;;30.10;57.00;;;;;;1864022;77;21063;-61
2022/07/08 13:47:10;;;;;;;8.38;4.78;;;30.00;57.80;;;;;;1928149;73;21027;-61
2022/07/08 13:49:40;;;;;;;7.92;4.92;;;30.00;58.40;;;;;;1881672;75;21150;-60
2022/07/08 13:52:09;;;;;;;6.05;4.50;;;29.90;58.70;;;;;;1928283;74;21038;-60
2022/07/08 13:54:38;;;;;;;6.17;4.28;;;29.90;58.60;;;;;;1881458;76;21022;-60
2022/07/08 13:57:07;;;;;;;21.55;5.62;;;29.70;58.70;;;;;;1927629;73;21538;-60
2022/07/08 13:59:37;;;;;;;9.70;5.83;;;29.70;58.90;;;;;;1927646;73;21080;-60
2022/07/08 14:02:06;;;;;;;10.60;4.97;;;29.70;59.10;;;;;;1881036;76;21088;-60
2022/07/08 14:04:35;;;;;;;10.32;4.75;;;29.60;59.20;;;;;;1927563;74;21401;-60
2022/07/08 14:07:05;;;;;;;7.22;4.55;;;29.60;59.30;;;;;;1927646;74;21403;-60
2022/07/08 14:09:35;;;;;;;10.88;4.83;;;29.40;59.30;;;;;;1881129;76;21015;-60
2022/07/08 14:12:05;;;;;;;9.10;4.67;;;29.40;59.60;;;;;;1927575;74;21022;-60
2022/07/08 14:14:34;;;;;;;7.50;4.20;;;29.40;59.90;;;;;;1881004;76;21026;-60
2022/07/08 14:17:04;;;;;;;7.08;4.72;;;29.30;60.10;;;;;;1927623;74;21002;-60
2022/07/08 14:19:33;;;;;;;10.65;4.72;;;29.30;60.10;;;;;;1881044;76;21026;-60
2022/07/08 14:22:02;;;;;;;11.12;5.25;;;29.40;60.10;;;;;;1927479;73;21054;-60
2022/07/08 14:24:32;;;;;;;19.23;9.38;;;29.40;60.10;;;;;;1927358;74;21106;-60
2022/07/08 14:27:06;;;;;;;17.87;8.85;;;29.50;60.10;;;;;;1927436;74;21084;-60
2022/07/08 14:29:32;;;;;;;19.32;9.35;;;29.60;60.00;;;;;;1926039;74;21511;-60
2022/07/08 14:32:02;;;;;;;16.93;8.68;;;29.60;60.00;;;;;;1927508;74;21050;-60
2022/07/08 14:34:32;;;;;;;10.20;5.42;;;29.70;60.30;;;;;;1927590;74;21015;-60
2022/07/08 14:37:02;;;;;;;11.40;5.22;;;29.80;60.20;;;;;;1927654;74;21026;-60
2022/07/08 14:39:31;;;;;;;7.62;4.28;;;29.90;60.10;;;;;;1927596;74;21084;-60
2022/07/08 14:42:00;;;;;;;8.35;4.50;;;30.00;59.90;;;;;;1881137;76;21072;-60
2022/07/08 14:44:29;;;;;;;6.20;4.90;;;30.10;59.50;;;;;;1928899;74;21116;-60
2022/07/08 14:46:59;;;;;;;10.98;5.17;;;30.20;59.50;;;;;;1924691;74;21022;-60
2022/07/08 14:49:29;;;;;;;5.03;4.60;;;30.30;59.00;;;;;;1924705;74;21046;-60
2022/07/08 14:51:58;;;;;;;7.20;5.33;;;30.30;58.60;;;;;;1924768;74;21069;-61
2022/07/08 14:54:28;;;;;;;14.53;4.58;;;30.30;58.10;;;;;;1924759;74;21132;-61
2022/07/08 14:56:58;;;;;;;7.03;4.50;;;30.30;58.20;;;;;;1924648;74;21050;-61
2022/07/08 14:59:27;;;;;;;8.05;5.92;;;30.40;57.70;;;;;;1924864;74;21047;-61
2022/07/08 15:01:56;;;;;;;7.70;4.75;;;30.40;57.90;;;;;;1924504;74;21014;-61
2022/07/08 15:04:28;;;;;;;14.58;4.72;;;30.40;58.20;;;;;;1924599;74;21014;-61
2022/07/08 15:06:57;;;;;;;12.18;5.20;;;30.40;58.50;;;;;;1924706;74;21073;-61
2022/07/08 15:09:26;;;;;;;11.88;6.50;;;30.40;58.60;;;;;;1924791;74;21019;-61
2022/07/08 15:11:55;;;;;;;14.25;6.85;;;30.40;58.60;;;;;;1924799;74;21064;-61
2022/07/08 15:14:25;;;;;;;11.00;6.20;;;30.40;58.80;;;;;;1924766;74;21465;-61
2022/07/08 15:16:54;;;;;;;9.90;5.60;;;30.50;59.10;;;;;;1924617;74;21018;-61
2022/07/08 15:19:23;;;;;;;9.25;5.45;;;30.50;59.50;;;;;;1924789;74;21053;-61
2022/07/08 15:21:53;;;;;;;14.58;5.80;;;30.50;59.50;;;;;;1924785;74;21046;-61
2022/07/08 15:24:22;;;;;;;11.25;5.58;;;30.50;59.60;;;;;;1924745;74;21448;-61
2022/07/08 15:26:54;;;;;;;13.38;5.35;;;30.40;59.70;;;;;;1924695;74;21019;-61
2022/07/08 15:29:23;;;;;;;11.00;6.30;;;30.30;60.00;;;;;;1924592;74;21078;-61
2022/07/08 15:31:53;;;;;;;13.22;5.70;;;30.30;60.20;;;;;;1924727;74;21306;-61
2022/07/08 15:34:22;;;;;;;30.10;8.03;;;30.20;60.00;;;;;;1924592;74;21030;-61
2022/07/08 15:36:51;;;;;;;12.90;5.40;;;30.20;60.70;;;;;;1924752;74;21397;-61
2022/07/08 15:39:21;;;;;;;7.35;5.50;;;30.20;59.90;;;;;;1924677;74;21023;-61
2022/07/08 15:41:50;;;;;;;8.80;5.15;;;30.20;59.80;;;;;;1924610;74;21089;-61
2022/07/08 15:44:20;;;;;;;5.87;4.90;;;30.10;59.70;;;;;;1924567;74;21100;-60
2022/07/08 15:46:49;;;;;;;13.35;5.60;;;30.10;59.90;;;;;;1924745;74;20997;-61
2022/07/08 15:49:18;;;;;;;10.08;5.62;;;30.00;59.90;;;;;;1924633;74;20995;-61
2022/07/08 15:51:48;;;;;;;11.83;5.90;;;30.00;60.00;;;;;;1924591;74;21015;-61
2022/07/08 15:54:17;;;;;;;11.53;6.72;;;29.90;60.30;;;;;;1924646;74;21072;-61
2022/07/08 15:56:47;;;;;;;8.40;5.83;;;29.80;60.80;;;;;;1924622;74;21012;-61
2022/07/08 15:59:16;;;;;;;21.50;6.58;;;29.80;61.40;;;;;;1924672;74;21088;-61
2022/07/08 16:01:46;;;;;;;11.33;6.40;;;29.80;62.00;;;;;;1924672;74;21038;-61
2022/07/08 16:04:15;;;;;;;11.68;6.28;;;29.90;62.40;;;;;;1924714;74;21476;-60
2022/07/08 16:06:45;;;;;;;12.70;6.53;;;29.90;62.60;;;;;;1924549;74;21026;-61
2022/07/08 16:09:14;;;;;;;15.58;7.65;;;29.90;62.70;;;;;;1924555;74;21152;-61
2022/07/08 16:11:43;;;;;;;23.95;8.13;;;29.90;62.80;;;;;;1924904;74;21042;-61
2022/07/08 16:14:13;;;;;;;11.80;6.25;;;29.80;62.80;;;;;;1924651;74;21058;-61
2022/07/08 16:16:42;;;;;;;9.50;5.80;;;29.80;63.00;;;;;;1924868;74;21019;-60
2022/07/08 16:19:11;;;;;;;15.00;6.72;;;29.80;62.80;;;;;;1924669;74;20999;-60
2022/07/08 16:21:42;;;;;;;13.62;6.83;;;29.70;62.70;;;;;;1924713;74;21135;-60
2022/07/08 16:24:12;;;;;;;11.12;6.30;;;29.70;62.90;;;;;;1924742;74;21019;-60
2022/07/08 16:26:41;;;;;;;13.15;6.60;;;29.70;63.10;;;;;;1924712;74;21014;-60
2022/07/08 16:29:10;;;;;;;20.82;6.30;;;29.70;63.20;;;;;;1924742;74;21019;-60
2022/07/08 16:31:40;;;;;;;11.73;5.95;;;29.70;63.20;;;;;;1924679;74;21086;-60
2022/07/08 16:34:09;;;;;;;13.62;6.80;;;29.80;63.10;;;;;;1924701;74;21011;-60
2022/07/08 16:36:39;;;;;;;7.40;5.65;;;29.80;63.00;;;;;;1924722;74;21027;-60
2022/07/08 16:39:08;;;;;;;10.55;6.08;;;29.90;63.10;;;;;;1924777;74;21092;-60
2022/07/08 16:41:37;;;;;;;8.23;4.92;;;29.90;63.00;;;;;;1924699;74;21073;-60
2022/07/08 16:44:06;;;;;;;18.00;6.55;;;29.90;63.00;;;;;;1924699;74;21006;-61
2022/07/08 16:46:36;;;;;;;8.15;5.80;;;29.90;62.80;;;;;;1924639;74;21113;-61
2022/07/08 16:49:05;;;;;;;8.38;6.15;;;29.90;62.80;;;;;;1924652;74;21031;-60
2022/07/08 16:51:35;;;;;;;12.25;7.10;;;29.80;62.90;;;;;;1924688;74;21070;-60
2022/07/08 16:54:04;;;;;;;16.07;6.90;;;29.80;63.00;;;;;;1924688;74;21073;-60
2022/07/08 16:56:33;;;;;;;14.90;7.83;;;29.80;63.10;;;;;;1924776;74;21070;-60
2022/07/08 16:59:02;;;;;;;11.55;7.75;;;29.70;63.20;;;;;;1924656;74;21007;-60
2022/07/08 17:01:32;;;;;;;15.28;7.80;;;29.70;63.40;;;;;;1924662;74;21019;-60
2022/07/08 17:04:01;;;;;;;9.03;7.12;;;29.70;63.60;;;;;;1924621;74;21088;-60
2022/07/08 17:06:30;;;;;;;9.90;7.03;;;29.60;63.90;;;;;;1924504;74;21014;-60
2022/07/08 17:08:59;;;;;;;13.35;7.92;;;29.40;64.20;;;;;;1924601;74;21022;-60
2022/07/08 17:11:29;;;;;;;14.90;8.38;;;29.30;64.50;;;;;;1924748;74;21389;-60
2022/07/08 17:13:59;;;;;;;19.25;8.25;;;29.20;64.70;;;;;;1924767;74;21076;-60
2022/07/08 17:16:29;;;;;;;12.15;9.15;;;29.20;65.00;;;;;;1924784;74;20995;-60
2022/07/08 17:18:58;;;;;;;16.67;7.90;;;29.10;65.20;;;;;;1924727;74;21092;-61
2022/07/08 17:21:30;;;;;;;10.53;7.12;;;29.10;65.30;;;;;;1924745;74;21069;-61
2022/07/08 17:23:59;;;;;;;16.87;7.25;;;29.10;65.50;;;;;;1924780;74;21034;-60
2022/07/08 17:26:29;;;;;;;20.72;8.05;;;29.10;65.70;;;;;;1924554;74;21021;-60
2022/07/08 17:29:47;;;;;;;11.88;6.83;;;29.10;65.90;;;;;;1924618;74;21015;-60
2022/07/08 17:31:29;;;;;;;10.55;7.35;;;29.00;66.00;;;;;;1921645;74;21457;-60
2022/07/08 17:33:58;;;;;;;11.25;6.53;;;29.00;66.10;;;;;;1924707;74;20987;-60
2022/07/08 17:36:27;;;;;;;11.63;7.20;;;29.00;66.30;;;;;;1924817;74;21433;-60
2022/07/08 17:38:57;;;;;;;11.20;6.75;;;28.90;66.20;;;;;;1924893;74;21100;-60
2022/07/08 17:41:26;;;;;;;9.85;6.17;;;28.90;66.40;;;;;;1924777;74;21084;-60
2022/07/08 17:43:56;;;;;;;17.55;7.72;;;28.80;66.50;;;;;;1924729;74;21078;-60
2022/07/08 17:46:26;;;;;;;18.92;7.53;;;28.80;66.60;;;;;;1924601;74;21055;-60
2022/07/08 17:48:55;;;;;;;11.45;6.80;;;28.70;66.60;;;;;;1924760;74;21485;-60
2022/07/08 17:51:24;;;;;;;8.95;6.40;;;28.80;66.80;;;;;;1924674;74;21066;-60
2022/07/08 17:53:53;;;;;;;10.40;6.28;;;28.70;66.70;;;;;;1924707;74;21019;-60
2022/07/08 17:56:23;;;;;;;7.70;5.87;;;28.70;66.70;;;;;;1924813;74;21084;-60
2022/07/08 17:58:52;;;;;;;11.80;7.20;;;28.60;66.80;;;;;;1924694;74;21026;-60
2022/07/08 18:01:21;;;;;;;7.42;5.90;;;28.50;66.90;;;;;;1924734;74;20998;-60
2022/07/08 18:03:51;;;;;;;12.98;7.20;;;28.40;67.20;;;;;;1924754;74;21026;-60
2022/07/08 18:06:20;;;;;;;19.77;7.10;;;28.40;67.50;;;;;;1924728;74;21084;-60
2022/07/08 18:08:49;;;;;;;8.78;6.87;;;28.30;67.50;;;;;;1924697;74;21014;-60
2022/07/08 18:11:19;;;;;;;14.45;7.40;;;28.30;67.70;;;;;;1924717;74;21518;-60
2022/07/08 18:13:49;;;;;;;10.30;6.42;;;28.10;67.90;;;;;;1924697;74;21019;-60
2022/07/08 18:16:18;;;;;;;9.83;6.70;;;28.00;68.20;;;;;;1924741;74;21022;-60
2022/07/08 18:18:47;;;;;;;6.92;6.17;;;28.00;68.50;;;;;;1924810;74;21069;-60
2022/07/08 18:21:17;;;;;;;10.55;6.03;;;27.90;68.60;;;;;;1924776;74;21027;-60
2022/07/08 18:23:46;;;;;;;10.63;7.25;;;27.90;68.90;;;;;;1924747;74;21080;-60
2022/07/08 18:26:16;;;;;;;16.05;7.35;;;27.80;69.00;;;;;;1924637;74;21008;-60
2022/07/08 18:28:45;;;;;;;10.00;6.35;;;27.80;69.10;;;;;;1924812;74;21015;-60
2022/07/08 18:31:16;;;;;;;11.05;7.35;;;27.80;69.40;;;;;;1924669;74;21318;-60
2022/07/08 18:33:45;;;;;;;11.03;6.30;;;27.70;69.40;;;;;;1924760;74;21136;-60
2022/07/08 18:36:14;;;;;;;13.28;7.92;;;27.70;69.40;;;;;;1924654;74;21119;-60
2022/07/08 18:38:44;;;;;;;16.17;7.25;;;27.70;69.40;;;;;;1924658;74;20999;-60
2022/07/08 18:41:15;;;;;;;11.83;6.45;;;27.70;69.30;;;;;;1924649;74;21065;-60
2022/07/08 18:43:45;;;;;;;9.65;5.90;;;27.70;69.20;;;;;;1924794;74;21066;-60
2022/07/08 18:46:15;;;;;;;6.80;5.58;;;27.70;69.20;;;;;;1924101;74;21062;-59
2022/07/08 18:48:44;;;;;;;6.12;5.12;;;27.70;69.40;;;;;;1868980;77;20990;-60
2022/07/08 18:51:14;;;;;;;9.63;6.72;;;27.60;69.50;;;;;;1905272;75;21019;-60
2022/07/08 18:53:44;;;;;;;8.83;6.10;;;27.60;69.40;;;;;;1868825;77;21006;-60
2022/07/08 18:56:13;;;;;;;11.08;6.97;;;27.70;69.50;;;;;;1905354;75;21029;-60
2022/07/08 18:58:43;;;;;;;9.98;5.78;;;27.70;69.50;;;;;;1905306;74;21027;-60
2022/07/08 19:01:12;;;;;;;15.05;7.08;;;27.60;69.60;;;;;;1868960;77;21340;-59
2022/07/08 19:03:41;;;;;;;21.17;6.62;;;27.60;69.70;;;;;;1905317;74;21133;-60
2022/07/08 19:06:12;;;;;;;14.07;7.58;;;27.50;69.70;;;;;;1905288;75;21007;-60
2022/07/08 19:08:41;;;;;;;10.20;7.30;;;27.50;69.80;;;;;;1905386;75;21027;-60
2022/07/08 19:11:13;;;;;;;11.28;6.95;;;27.50;69.90;;;;;;1892560;75;21098;-60
2022/07/08 19:13:42;;;;;;;10.53;6.92;;;27.40;70.00;;;;;;1905322;74;21062;-60
2022/07/08 19:16:11;;;;;;;11.03;7.42;;;27.40;70.10;;;;;;1905365;75;21509;-60
2022/07/08 19:18:41;;;;;;;10.35;6.67;;;27.40;70.10;;;;;;1905357;75;21405;-60
2022/07/08 19:21:10;;;;;;;13.18;7.67;;;27.30;70.20;;;;;;1905279;75;21066;-60
2022/07/08 19:23:40;;;;;;;14.23;6.85;;;27.30;70.50;;;;;;1905284;75;20991;-60
2022/07/08 19:26:09;;;;;;;8.43;5.53;;;27.30;70.70;;;;;;1905340;74;21161;-60
2022/07/08 19:28:39;;;;;;;11.05;6.30;;;27.30;70.70;;;;;;1868839;77;21014;-60
2022/07/08 19:31:08;;;;;;;11.97;6.55;;;27.30;70.50;;;;;;1905236;74;21082;-59
2022/07/08 19:33:38;;;;;;;9.20;6.53;;;27.30;70.40;;;;;;1905303;75;21031;-59
2022/07/08 19:36:07;;;;;;;7.67;6.10;;;27.30;70.30;;;;;;1868820;77;21147;-59